Time;durP1;ratioP1;P1;durP2;ratioP2;P2;SDS_P1;SDS_P2;PMS_P1;PMS_P2;Temp;Humidity;BMP_temperature;BMP_pressure;BME280_temperature;BME280_humidity;BME280_pressure;Samples;Min_cycle;Max_cycle;Signal;HPM_P1;HPM_P2
2023/09/29 00:02:04;;;;;;;170.82;13.68;;;;;;;22.68;54.88;99711.09;7280050;19;131210;-38
2023/09/29 00:04:30;;;;;;;237.57;18.08;;;;;;;22.69;54.92;99707.53;7283365;19;129765;-37
2023/09/29 00:06:55;;;;;;;179.97;14.70;;;;;;;22.68;54.30;99700.63;7283297;19;129804;-35
2023/09/29 00:09:20;;;;;;;119.03;11.00;;;;;;;22.61;54.77;99689.09;7283952;19;131323;-37
2023/09/29 00:11:48;;;;;;;179.38;14.20;;;;;;;22.68;54.25;99700.63;7279383;19;131487;-36
2023/09/29 00:14:14;;;;;;;138.65;12.93;;;;;;;22.68;54.02;99701.47;7285571;19;129953;-34
2023/09/29 00:16:39;;;;;;;138.13;12.10;;;;;;;22.71;54.67;99700.34;7286425;19;129914;-36
2023/09/29 00:19:05;;;;;;;207.93;15.97;;;;;;;22.58;54.47;99684.09;7284526;19;130098;-37
2023/09/29 00:21:30;;;;;;;181.63;13.63;;;;;;;22.66;54.34;99707.81;7283306;19;129840;-37
2023/09/29 00:23:55;;;;;;;248.23;18.87;;;;;;;22.67;54.53;99707.69;7280378;19;130728;-35
2023/09/29 00:26:21;;;;;;;139.33;12.47;;;;;;;22.69;54.54;99707.53;7281338;19;131578;-36
2023/09/29 00:28:46;;;;;;;204.07;15.90;;;;;;;22.69;54.18;99702.28;7285222;19;130541;-37
2023/09/29 00:31:15;;;;;;;151.63;12.47;;;;;;;22.69;54.77;99702.28;7285695;19;130550;-35
2023/09/29 00:33:41;;;;;;;126.72;11.15;;;;;;;22.69;54.66;99702.28;7287736;19;129420;-36
2023/09/29 00:36:06;;;;;;;178.60;14.07;;;;;;;22.69;54.45;99704.91;7284680;19;129263;-36
2023/09/29 00:38:33;;;;;;;138.03;11.33;;;;;;;22.66;54.87;99695.53;7285801;19;132084;-34
2023/09/29 00:40:58;;;;;;;182.15;14.73;;;;;;;22.68;54.42;99705.88;7281752;19;131083;-35
2023/09/29 00:43:24;;;;;;;116.25;10.68;;;;;;;22.68;54.89;99703.25;7283339;19;129379;-37
2023/09/29 00:45:50;;;;;;;169.53;13.73;;;;;;;22.67;54.39;99696.38;7285865;19;129073;-37
2023/09/29 00:48:16;;;;;;;162.07;13.07;;;;;;;22.66;55.03;99697.34;7280962;19;130153;-36
2023/09/29 00:50:44;;;;;;;115.90;10.45;;;;;;;22.67;54.52;99697.19;7284341;19;131123;-36
2023/09/29 00:53:13;;;;;;;68.53;8.07;;;;;;;22.68;54.26;99690.13;7285966;19;129783;-36
2023/09/29 00:55:42;;;;;;;160.15;13.27;;;;;;;22.67;54.20;99688.50;7284610;19;130718;-37
2023/09/29 00:58:08;;;;;;;145.00;12.00;;;;;;;22.66;54.62;99692.91;7284949;19;129891;-37
2023/09/29 01:00:36;;;;;;;180.73;14.10;;;;;;;22.69;54.71;99694.44;7278553;19;131443;-36
2023/09/29 01:03:05;;;;;;;166.30;13.98;;;;;;;22.67;54.42;99685.88;7284870;19;130351;-37
2023/09/29 01:05:35;;;;;;;133.60;11.82;;;;;;;22.67;55.11;99685.88;7285628;19;130407;-36
2023/09/29 01:08:02;;;;;;;169.02;13.77;;;;;;;22.66;54.14;99681.63;7280865;19;131426;-35
2023/09/29 01:10:28;;;;;;;163.60;13.07;;;;;;;22.65;54.72;99670.31;7282782;19;130364;-38
2023/09/29 01:12:53;;;;;;;151.10;12.73;;;;;;;22.64;54.61;99667.81;7285378;19;129397;-36
2023/09/29 01:15:19;;;;;;;136.47;11.80;;;;;;;22.68;54.52;99684.91;7286070;19;131781;-36
2023/09/29 01:17:45;;;;;;;123.93;11.27;;;;;;;22.69;54.06;99668.22;7283876;19;130617;-37
2023/09/29 01:20:27;;;;;;;158.57;12.37;;;;;;;22.56;54.50;99655.44;7281164;19;130920;-37
2023/09/29 01:22:53;;;;;;;194.82;15.05;;;;;;;22.53;54.17;99660.97;7283084;19;130316;-37
2023/09/29 01:25:19;;;;;;;118.83;10.67;;;;;;;22.63;54.36;99679.25;7284794;19;131172;-37
2023/09/29 01:27:45;;;;;;;131.00;11.43;;;;;;;22.62;53.93;99675.00;7282106;19;129958;-36
2023/09/29 01:30:13;;;;;;;174.20;13.68;;;;;;;22.63;54.55;99671.41;7280707;19;130419;-36
2023/09/29 01:32:40;;;;;;;253.75;18.52;;;;;;;22.65;54.32;99679.94;7286733;19;129681;-35
2023/09/29 01:35:06;;;;;;;157.75;13.57;;;;;;;22.66;53.61;99681.63;7290875;19;129930;-38
2023/09/29 01:37:31;;;;;;;142.67;12.43;;;;;;;22.54;54.08;99661.81;7292656;19;131130;-37
2023/09/29 01:39:57;;;;;;;290.03;21.87;;;;;;;22.66;54.29;99668.50;7285865;19;130454;-35
2023/09/29 01:42:22;;;;;;;109.60;9.87;;;;;;;22.57;54.38;99651.03;7291787;19;129761;-37
2023/09/29 01:44:48;;;;;;;187.30;14.77;;;;;;;22.66;54.03;99666.69;7290402;19;130538;-36
2023/09/29 01:47:13;;;;;;;156.32;13.07;;;;;;;22.68;54.26;99669.16;7283314;19;130393;-34
2023/09/29 01:49:38;;;;;;;146.67;12.23;;;;;;;22.68;54.20;99666.56;7289605;19;130819;-34
2023/09/29 01:52:04;;;;;;;148.43;12.53;;;;;;;22.67;53.85;99665.75;7285251;19;132648;-37
2023/09/29 01:54:29;;;;;;;136.05;11.48;;;;;;;22.66;54.00;99677.19;7291125;19;129758;-36
2023/09/29 01:56:54;;;;;;;164.57;13.43;;;;;;;22.54;53.93;99651.31;7286209;19;132664;-37
2023/09/29 01:59:20;;;;;;;192.17;14.83;;;;;;;22.66;54.22;99671.13;7291452;19;130468;-37
2023/09/29 02:01:45;;;;;;;118.17;10.23;;;;;;;22.66;54.20;99671.94;7286116;19;132701;-35
2023/09/29 02:04:11;;;;;;;116.37;10.17;;;;;;;22.68;53.89;99677.03;7290268;19;129613;-36
2023/09/29 02:06:37;;;;;;;147.93;12.67;;;;;;;22.66;53.83;99671.13;7288612;19;131480;-37
2023/09/29 02:09:11;;;;;;;242.45;18.13;;;;;;;22.65;53.60;99680.78;7287574;19;132231;-37
2023/09/29 02:11:39;;;;;;;144.75;12.00;;;;;;;22.65;53.47;99675.53;7285197;19;131283;-36
2023/09/29 02:14:05;;;;;;;193.82;15.77;;;;;;;22.63;53.82;99676.63;7290404;19;130999;-36
2023/09/29 02:16:31;;;;;;;139.85;12.10;;;;;;;22.62;53.49;99670.59;7287834;19;132274;-36
2023/09/29 02:18:56;;;;;;;206.40;16.38;;;;;;;22.53;53.74;99660.97;7285167;19;130621;-37
2023/09/29 02:21:27;;;;;;;131.43;11.30;;;;;;;22.65;53.74;99679.94;7286778;19;130036;-37
2023/09/29 02:23:52;;;;;;;144.50;12.40;;;;;;;22.63;53.56;99676.63;7289669;19;131481;-36
2023/09/29 02:26:17;;;;;;;142.17;11.83;;;;;;;22.63;53.71;99674.03;7287197;19;130241;-35
2023/09/29 02:28:43;;;;;;;167.23;12.77;;;;;;;22.61;53.48;99665.50;7285224;19;130754;-35
2023/09/29 02:31:14;;;;;;;142.60;12.23;;;;;;;22.62;55.12;99669.75;7279951;19;130183;-37
2023/09/29 02:33:40;;;;;;;312.75;22.80;;;;;;;22.65;53.78;99674.72;7279020;19;131670;-37
2023/09/29 02:36:06;;;;;;;143.70;12.07;;;;;;;22.60;53.95;99671.69;7283612;19;133625;-36
2023/09/29 02:38:32;;;;;;;153.40;12.57;;;;;;;22.58;53.72;99663.16;7290336;19;131661;-36
2023/09/29 02:40:59;;;;;;;190.00;15.13;;;;;;;22.62;53.62;99675.00;7282947;19;130053;-36
2023/09/29 02:43:29;;;;;;;150.70;12.77;;;;;;;22.62;53.74;99675.00;7283587;19;129833;-35
2023/09/29 02:45:55;;;;;;;149.15;12.50;;;;;;;22.57;53.80;99656.25;7287553;19;130416;-36
2023/09/29 02:48:20;;;;;;;159.37;12.87;;;;;;;;;;7286599;19;131580;-35
2023/09/29 02:50:45;;;;;;;129.70;11.02;;;;;;;22.60;54.06;99661.22;7283939;19;131224;-37
2023/09/29 02:53:10;;;;;;;121.90;10.50;;;;;;;22.62;54.01;99675.00;7286156;19;129654;-37
2023/09/29 02:55:37;;;;;;;118.93;11.05;;;;;;;22.63;54.20;99666.16;7289586;19;130269;-37
2023/09/29 02:58:03;;;;;;;199.63;14.90;;;;;;;22.62;53.38;99661.91;7286511;19;131205;-36
2023/09/29 03:00:29;;;;;;;145.70;12.23;;;;;;;22.58;53.64;99657.91;7283008;19;131391;-37
2023/09/29 03:02:54;;;;;;;141.50;12.00;;;;;;;22.60;53.28;99661.22;7285767;19;129411;-35
2023/09/29 03:05:21;;;;;;;197.23;15.40;;;;;;;22.59;53.84;99660.38;7279203;19;131839;-35
2023/09/29 03:07:47;;;;;;;165.20;12.80;;;;;;;22.59;53.59;99662.19;7283938;19;130446;-36
2023/09/29 03:10:14;;;;;;;150.93;12.23;;;;;;;22.59;53.25;99665.63;7283965;19;129761;-35
2023/09/29 03:12:40;;;;;;;111.70;9.85;;;;;;;22.62;53.75;99648.78;7288465;19;130552;-36
2023/09/29 03:15:08;;;;;;;178.43;14.07;;;;;;;22.52;53.91;99640.13;7282404;19;129949;-36
2023/09/29 03:17:34;;;;;;;199.55;14.90;;;;;;;22.61;53.34;99658.44;7287722;19;131164;-34
2023/09/29 03:19:59;;;;;;;203.53;16.13;;;;;;;22.59;53.86;99659.56;7283689;19;132270;-36
2023/09/29 03:22:25;;;;;;;141.97;12.10;;;;;;;22.59;53.82;99656.94;7287157;19;129833;-37
2023/09/29 03:24:50;;;;;;;118.77;10.13;;;;;;;22.58;53.29;99650.88;7288363;19;130198;-36
2023/09/29 03:27:17;;;;;;;139.70;11.23;;;;;;;22.60;53.38;99648.09;7283072;19;131143;-36
2023/09/29 03:29:43;;;;;;;120.70;10.60;;;;;;;22.58;54.10;99648.25;7286491;19;129358;-35
2023/09/29 03:32:09;;;;;;;151.07;12.47;;;;;;;22.58;54.07;99648.25;7285636;19;130678;-36
2023/09/29 03:34:34;;;;;;;94.33;9.27;;;;;;;22.59;54.17;99649.09;7286634;19;130937;-36
2023/09/29 03:37:00;;;;;;;198.23;14.75;;;;;;;22.60;53.73;99642.88;7286080;19;130375;-35
2023/09/29 03:39:25;;;;;;;130.40;11.80;;;;;;;22.59;53.71;99649.91;7287270;19;129368;-36
2023/09/29 03:41:51;;;;;;;94.55;9.00;;;;;;;22.59;53.50;99649.09;7281004;19;129408;-37
2023/09/29 03:44:16;;;;;;;125.05;11.25;;;;;;;22.59;53.80;99651.72;7288027;19;131614;-37
2023/09/29 03:46:44;;;;;;;165.47;13.10;;;;;;;22.55;53.61;99643.31;7280567;19;131685;-35
2023/09/29 03:49:12;;;;;;;201.05;15.40;;;;;;;22.57;53.43;99651.03;7281404;19;129951;-35
2023/09/29 03:51:38;;;;;;;95.32;9.05;;;;;;;22.58;53.51;99652.66;7280543;19;130302;-37
2023/09/29 03:54:04;;;;;;;167.97;13.87;;;;;;;22.46;53.24;99633.66;7284328;19;131221;-37
2023/09/29 03:56:29;;;;;;;184.43;14.30;;;;;;;22.57;53.50;99648.41;7286623;19;131377;-35
2023/09/29 03:58:55;;;;;;;79.05;8.73;;;;;;;22.58;54.30;99642.19;7285322;19;129458;-35
2023/09/29 04:01:21;;;;;;;161.30;12.97;;;;;;;22.57;53.76;99645.78;7279326;19;129978;-37
2023/09/29 04:03:47;;;;;;;168.80;13.60;;;;;;;22.44;53.63;99629.53;7288050;19;129678;-37
2023/09/29 04:06:12;;;;;;;260.33;18.77;;;;;;;22.46;53.70;99635.47;7284336;19;131022;-35
2023/09/29 04:08:38;;;;;;;157.48;13.07;;;;;;;22.53;53.52;99654.88;7284906;19;130550;-36
2023/09/29 04:11:04;;;;;;;159.87;12.90;;;;;;;22.56;53.36;99649.38;7282787;19;129989;-35
2023/09/29 04:13:29;;;;;;;179.13;14.27;;;;;;;22.54;53.14;99653.94;7287331;19;132080;-37
2023/09/29 04:15:55;;;;;;;147.30;12.73;;;;;;;22.40;53.50;99628.16;7285360;19;130257;-36
2023/09/29 04:18:20;;;;;;;153.03;12.53;;;;;;;22.51;53.82;99647.16;7283082;19;130392;-36
2023/09/29 04:20:46;;;;;;;132.18;11.38;;;;;;;22.52;53.83;99653.22;7285232;19;130275;-37
2023/09/29 04:23:11;;;;;;;250.57;18.03;;;;;;;22.55;53.61;99647.72;7282096;19;130113;-36
2023/09/29 04:25:37;;;;;;;135.03;11.17;;;;;;;22.54;53.62;99646.91;7285447;19;130405;-35
2023/09/29 04:28:02;;;;;;;181.07;14.77;;;;;;;22.51;54.15;99646.34;7282966;19;130096;-35
2023/09/29 04:30:28;;;;;;;117.47;11.00;;;;;;;22.53;54.01;99652.28;7280877;19;129944;-36
2023/09/29 04:32:53;;;;;;;129.07;10.57;;;;;;;22.56;53.87;99652.00;7286910;19;130347;-37
2023/09/29 04:35:19;;;;;;;142.13;12.05;;;;;;;22.48;53.70;99651.84;7283706;19;129794;-36
2023/09/29 04:37:44;;;;;;;129.27;11.27;;;;;;;22.55;53.53;99652.97;7285891;19;133437;-37
2023/09/29 04:40:11;;;;;;;156.30;12.50;;;;;;;22.55;53.58;99664.28;7284153;19;129190;-35
2023/09/29 04:42:37;;;;;;;160.45;12.60;;;;;;;22.55;53.38;99663.44;7285981;19;130361;-36
2023/09/29 04:45:03;;;;;;;162.13;13.67;;;;;;;22.54;53.39;99661.81;7286248;19;130341;-35
2023/09/29 04:47:28;;;;;;;120.80;10.43;;;;;;;22.51;53.71;99662.06;7284663;19;130205;-36
2023/09/29 04:49:54;;;;;;;160.23;13.80;;;;;;;22.51;53.84;99667.31;7280413;19;130639;-37
2023/09/29 04:52:19;;;;;;;181.27;13.90;;;;;;;22.51;53.86;99664.69;7281872;19;129602;-37
2023/09/29 04:54:45;;;;;;;121.45;10.80;;;;;;;22.52;53.88;99664.53;7277149;19;130996;-37
2023/09/29 04:57:10;;;;;;;184.95;14.52;;;;;;;22.53;53.56;99665.38;7280990;19;129586;-36
2023/09/29 04:59:36;;;;;;;155.87;12.47;;;;;;;22.54;54.17;99656.56;7285169;19;131855;-36
2023/09/29 05:02:01;;;;;;;153.68;12.63;;;;;;;22.51;53.70;99667.31;7281595;19;131554;-36
2023/09/29 05:04:27;;;;;;;102.03;10.05;;;;;;;22.52;53.57;99668.94;7284698;19;132310;-36
2023/09/29 05:06:52;;;;;;;145.57;11.97;;;;;;;22.52;53.60;99668.94;7288001;19;130649;-35
2023/09/29 05:09:19;;;;;;;185.90;14.50;;;;;;;22.53;53.95;99666.22;7287115;19;130457;-35
2023/09/29 05:11:44;;;;;;;;;;;;;;;22.60;55.56;99661.22;7285845;19;130072;-35
2023/09/29 05:14:10;;;;;;;165.07;13.80;;;;;;;22.58;53.88;99673.63;7290607;19;130192;-37
2023/09/29 05:16:35;;;;;;;149.52;11.95;;;;;;;22.57;54.33;99672.00;7289197;19;129566;-36
2023/09/29 05:19:01;;;;;;;155.83;12.60;;;;;;;22.56;53.99;99670.34;7290539;19;130753;-37
2023/09/29 05:21:27;;;;;;;160.48;12.88;;;;;;;22.49;53.84;99658.75;7289621;19;131672;-37
2023/09/29 05:23:52;;;;;;;134.13;11.50;;;;;;;22.47;53.53;99640.56;7290623;19;132007;-36
2023/09/29 05:26:18;;;;;;;170.63;13.88;;;;;;;22.54;53.62;99669.66;7292203;19;130750;-34
2023/09/29 05:28:43;;;;;;;128.93;11.40;;;;;;;22.51;53.98;99668.09;7286592;19;130188;-35
2023/09/29 05:31:09;;;;;;;178.30;14.70;;;;;;;22.49;53.32;99662.22;7290660;19;131864;-37
2023/09/29 05:33:35;;;;;;;151.77;12.83;;;;;;;22.51;54.22;99664.69;7292201;19;130374;-36
2023/09/29 05:36:00;;;;;;;169.33;14.27;;;;;;;22.45;53.50;99665.22;7290858;19;130186;-36
2023/09/29 05:38:25;;;;;;;153.70;12.33;;;;;;;22.37;53.89;99649.41;7289996;19;129991;-36
2023/09/29 05:40:51;;;;;;;140.75;11.98;;;;;;;22.46;53.19;99659.03;7289233;19;131867;-36
2023/09/29 05:43:17;;;;;;;162.33;13.57;;;;;;;22.46;53.27;99670.31;7288999;19;129986;-36
2023/09/29 05:45:44;;;;;;;168.48;13.60;;;;;;;22.46;53.56;99674.75;7286671;19;129947;-35
2023/09/29 05:48:09;;;;;;;184.38;14.88;;;;;;;22.46;53.14;99674.75;7291395;19;129064;-35
2023/09/29 05:50:35;;;;;;;149.18;13.10;;;;;;;22.44;53.16;99677.53;7289145;19;130086;-36
2023/09/29 05:53:02;;;;;;;162.87;13.63;;;;;;;22.36;53.92;99663.50;7290762;19;130295;-36
2023/09/29 05:55:28;;;;;;;166.77;12.95;;;;;;;22.35;53.85;99659.19;7290445;19;130402;-37
2023/09/29 05:57:53;;;;;;;210.57;15.87;;;;;;;22.45;54.00;99683.56;7288474;19;129768;-35
2023/09/29 06:00:19;;;;;;;198.48;15.57;;;;;;;22.46;54.04;99677.38;7279465;19;131402;-37
2023/09/29 06:02:46;;;;;;;129.67;11.37;;;;;;;22.48;53.46;99685.91;7291480;19;131040;-37
2023/09/29 06:05:12;;;;;;;180.20;13.85;;;;;;;22.46;53.80;99685.25;7287957;19;132409;-36
2023/09/29 06:07:37;;;;;;;168.43;13.63;;;;;;;22.48;53.45;99685.91;7292948;19;129313;-36
2023/09/29 06:10:04;;;;;;;130.85;12.35;;;;;;;22.44;54.05;99693.25;7292355;19;132005;-37
2023/09/29 06:12:30;;;;;;;;;;;;;;;22.49;55.59;99695.44;7288629;19;131703;-36
2023/09/29 06:14:56;;;;;;;162.40;13.00;;;;;;;22.49;53.67;99696.25;7290193;19;130987;-36
2023/09/29 06:17:22;;;;;;;;;;;;;;;22.51;55.75;99696.13;7288326;19;129342;-35
2023/09/29 06:19:48;;;;;;;124.93;12.25;;;;;;;22.45;53.74;99694.06;7291017;19;132255;-36
2023/09/29 06:22:13;;;;;;;173.27;14.43;;;;;;;22.40;54.11;99697.09;7286826;19;129366;-36
2023/09/29 06:24:39;;;;;;;168.68;13.25;;;;;;;22.31;53.60;99674.41;7292395;19;132349;-37
2023/09/29 06:27:04;;;;;;;152.52;13.15;;;;;;;22.41;53.67;99698.75;7287014;19;130102;-35
2023/09/29 06:29:30;;;;;;;122.57;11.57;;;;;;;22.30;54.05;99675.34;7288501;19;130174;-35
2023/09/29 06:31:56;;;;;;;126.57;11.37;;;;;;;22.39;54.36;99699.88;7286872;19;130642;-37
2023/09/29 06:34:21;;;;;;;217.77;16.70;;;;;;;22.41;54.07;99698.75;7289266;19;130047;-37
2023/09/29 06:36:47;;;;;;;112.03;10.30;;;;;;;22.44;54.20;99702.91;7291685;19;130790;-34
2023/09/29 06:39:12;;;;;;;146.52;12.15;;;;;;;22.33;53.77;99680.31;7287453;19;130604;-34
2023/09/29 06:41:38;;;;;;;144.87;12.30;;;;;;;22.41;54.07;99709.22;7285560;19;130532;-34
2023/09/29 06:44:04;;;;;;;185.57;14.70;;;;;;;22.43;54.51;99701.25;7289928;19;129531;-36
2023/09/29 06:46:29;;;;;;;165.30;13.77;;;;;;;22.44;53.83;99702.91;7290483;19;133324;-36
2023/09/29 06:48:55;;;;;;;124.30;11.20;;;;;;;22.45;54.72;99704.53;7289126;19;129716;-34
2023/09/29 06:51:20;;;;;;;99.15;9.45;;;;;;;22.44;54.16;99708.13;7283707;19;129655;-36
2023/09/29 06:53:45;;;;;;;168.38;13.55;;;;;;;22.44;54.55;99711.59;7290664;19;129827;-37
2023/09/29 06:56:11;;;;;;;165.13;13.80;;;;;;;22.44;54.41;99708.13;7288428;19;129741;-37
2023/09/29 06:58:36;;;;;;;153.97;13.00;;;;;;;22.44;54.56;99711.59;7290874;19;132037;-36
2023/09/29 07:01:02;;;;;;;189.33;14.80;;;;;;;22.44;53.96;99705.50;7286055;19;131003;-35
2023/09/29 07:03:30;;;;;;;161.23;13.15;;;;;;;22.40;54.66;99709.38;7288957;19;130743;-36
2023/09/29 07:05:59;;;;;;;181.52;14.75;;;;;;;22.28;53.99;99692.19;7287875;19;132424;-35
2023/09/29 07:08:25;;;;;;;170.05;13.63;;;;;;;22.41;55.15;99711.84;7288202;19;130419;-36
2023/09/29 07:10:50;;;;;;;156.90;12.93;;;;;;;22.41;54.96;99703.19;7283760;19;131229;-35
2023/09/29 07:13:16;;;;;;;187.57;13.90;;;;;;;22.43;54.36;99701.25;7287040;19;129749;-36
2023/09/29 07:15:41;;;;;;;147.87;12.87;;;;;;;22.44;54.65;99705.50;7288579;19;129397;-37
2023/09/29 07:18:10;;;;;;;127.13;11.05;;;;;;;22.44;54.66;99705.50;7289166;19;130054;-37
2023/09/29 07:20:37;;;;;;;150.00;12.13;;;;;;;22.42;54.84;99704.81;7287325;19;130741;-37
2023/09/29 07:23:03;;;;;;;;;;;;;;;22.44;56.14;99711.59;7288399;19;130276;-35
2023/09/29 07:25:29;;;;;;;163.52;13.52;;;;;;;22.42;54.60;99707.44;7287490;19;130122;-35
2023/09/29 07:27:54;;;;;;;107.47;10.53;;;;;;;22.40;54.97;99701.50;7287767;19;130202;-37
2023/09/29 07:30:19;;;;;;;191.07;14.33;;;;;;;22.41;55.03;99708.41;7285607;19;131137;-36
2023/09/29 07:32:45;;;;;;;173.95;13.43;;;;;;;22.41;55.18;99708.41;7288769;19;130275;-37
2023/09/29 07:35:10;;;;;;;145.68;11.55;;;;;;;22.40;55.22;99704.13;7289571;19;131071;-36
2023/09/29 07:37:38;;;;;;;129.73;11.27;;;;;;;22.39;54.68;99705.09;7286967;19;130970;-35
2023/09/29 07:40:04;;;;;;;159.20;12.82;;;;;;;22.41;55.62;99711.03;7282409;19;131789;-37
2023/09/29 07:42:29;;;;;;;165.82;12.52;;;;;;;22.38;55.51;99703.47;7287655;19;130146;-35
2023/09/29 07:44:55;;;;;;;164.17;12.70;;;;;;;22.35;55.09;99708.97;7287820;19;131546;-37
2023/09/29 07:47:20;;;;;;;162.53;13.83;;;;;;;22.39;55.60;99702.50;7286783;19;131047;-37
2023/09/29 07:49:46;;;;;;;203.97;14.93;;;;;;;22.36;55.89;99705.41;7287962;19;130758;-36
2023/09/29 07:52:11;;;;;;;138.27;12.20;;;;;;;22.35;55.72;99704.56;7283903;19;129721;-35
2023/09/29 07:54:36;;;;;;;155.35;12.43;;;;;;;22.26;55.57;99689.72;7283775;19;129621;-35
2023/09/29 07:57:02;;;;;;;131.20;11.60;;;;;;;22.37;56.03;99707.03;7286566;19;132080;-36
2023/09/29 07:59:27;;;;;;;171.97;14.00;;;;;;;22.28;55.46;99690.38;7284880;19;131380;-36
2023/09/29 08:01:53;;;;;;;153.70;12.37;;;;;;;22.40;55.75;99712.00;7285667;19;129885;-37
2023/09/29 08:04:19;;;;;;;153.77;12.67;;;;;;;22.36;55.91;99706.19;7283884;19;130583;-34
2023/09/29 08:06:45;;;;;;;165.38;13.38;;;;;;;22.37;55.45;99717.50;7277816;19;129856;-36
2023/09/29 08:09:12;;;;;;;227.48;16.92;;;;;;;22.39;55.67;99716.41;7285796;19;130335;-36
2023/09/29 08:11:39;;;;;;;147.98;12.40;;;;;;;22.28;55.35;99694.81;7284266;19;129915;-35
2023/09/29 08:14:04;;;;;;;147.48;12.25;;;;;;;22.38;55.55;99716.56;7286440;19;129427;-37
2023/09/29 08:16:30;;;;;;;184.57;14.87;;;;;;;22.39;55.52;99715.59;7285503;19;129388;-37
2023/09/29 08:18:55;;;;;;;153.80;12.47;;;;;;;22.39;56.01;99711.19;7285288;19;133457;-35
2023/09/29 08:21:21;;;;;;;170.75;13.32;;;;;;;22.39;56.59;99705.09;7285296;19;131292;-36
2023/09/29 08:23:46;;;;;;;157.97;13.13;;;;;;;22.41;55.75;99711.03;7282075;19;129730;-37
2023/09/29 08:26:12;;;;;;;133.95;11.20;;;;;;;22.40;56.36;99702.34;7286786;19;130006;-38
2023/09/29 08:28:38;;;;;;;185.47;13.70;;;;;;;22.41;55.82;99716.28;7285052;19;131287;-34
2023/09/29 08:31:15;;;;;;;141.65;11.38;;;;;;;22.41;56.74;99713.66;7284673;19;129648;-37
2023/09/29 08:33:41;;;;;;;139.82;11.60;;;;;;;22.35;55.98;99690.63;7283819;19;130428;-36
2023/09/29 08:36:07;;;;;;;157.87;12.13;;;;;;;22.45;56.46;99705.38;7285224;19;130202;-36
2023/09/29 08:38:32;;;;;;;166.35;13.18;;;;;;;22.44;55.62;99716.00;7283465;19;130813;-36
2023/09/29 08:41:02;;;;;;;173.50;13.57;;;;;;;22.45;56.00;99705.38;7286575;19;131848;-37
2023/09/29 08:43:29;;;;;;;160.20;12.82;;;;;;;22.47;55.75;99706.06;7288515;19;129872;-36
2023/09/29 08:46:00;;;;;;;119.20;10.80;;;;;;;22.44;55.95;99700.28;7290041;19;131096;-37
2023/09/29 08:48:34;;;;;;;153.68;11.77;;;;;;;22.46;56.50;99703.59;7287268;19;131077;-37
2023/09/29 08:51:01;;;;;;;169.38;13.35;;;;;;;22.46;56.20;99707.00;7289191;19;130151;-37
2023/09/29 08:53:28;;;;;;;137.77;11.50;;;;;;;22.48;56.60;99704.25;7291073;19;130047;-35
2023/09/29 08:55:54;;;;;;;136.07;10.82;;;;;;;22.47;55.90;99703.44;7291633;19;131346;-38
2023/09/29 08:58:21;;;;;;;155.02;12.50;;;;;;;22.36;55.93;99684.44;7291221;19;131204;-35
2023/09/29 09:00:48;;;;;;;199.63;14.48;;;;;;;22.48;55.75;99701.63;7287763;19;129892;-40
2023/09/29 09:03:14;;;;;;;131.40;11.00;;;;;;;22.40;55.96;99686.63;7294810;19;132032;-37
2023/09/29 09:05:39;;;;;;;176.93;13.20;;;;;;;22.49;56.74;99700.66;7289982;19;131184;-36
2023/09/29 09:08:05;;;;;;;125.10;10.03;;;;;;;22.36;55.88;99681.81;7291555;19;133340;-36
2023/09/29 09:10:32;;;;;;;170.20;13.18;;;;;;;22.48;56.45;99706.84;7291500;19;131155;-39
2023/09/29 09:12:59;;;;;;;146.20;11.43;;;;;;;22.50;56.62;99703.16;7293214;19;129550;-37
2023/09/29 09:15:25;;;;;;;151.05;12.45;;;;;;;22.51;55.84;99709.22;7290222;19;130704;-39
2023/09/29 09:17:51;;;;;;;183.77;13.43;;;;;;;22.48;56.29;99699.84;7290261;19;131336;-35
2023/09/29 09:20:17;;;;;;;132.88;10.32;;;;;;;22.51;56.34;99703.97;7292203;19;129833;-37
2023/09/29 09:22:42;;;;;;;130.38;10.77;;;;;;;22.49;56.63;99704.13;7293422;19;130578;-39
2023/09/29 09:25:09;;;;;;;169.43;13.20;;;;;;;22.36;55.97;99685.25;7290906;19;131336;-36
2023/09/29 09:27:38;;;;;;;162.88;12.13;;;;;;;22.48;56.37;99704.25;7291203;19;131017;-36
2023/09/29 09:30:05;;;;;;;158.65;11.80;;;;;;;22.48;56.47;99699.84;7291702;19;132472;-36
2023/09/29 09:32:31;;;;;;;177.27;13.68;;;;;;;22.49;55.82;99700.66;7286147;19;130075;-39
2023/09/29 09:34:57;;;;;;;154.07;12.37;;;;;;;22.52;55.96;99689.91;7285030;19;130915;-38
2023/09/29 09:37:27;;;;;;;182.98;13.55;;;;;;;22.52;55.95;99685.50;7283453;19;131852;-41
2023/09/29 09:39:59;;;;;;;175.45;12.88;;;;;;;22.52;56.18;99689.91;7284585;19;130447;-37
2023/09/29 09:42:26;;;;;;;137.80;11.27;;;;;;;22.56;56.00;99686.06;7289730;19;130032;-37
2023/09/29 09:44:56;;;;;;;131.40;10.35;;;;;;;22.58;56.12;99684.09;7292266;19;130226;-36
2023/09/29 09:47:25;;;;;;;129.70;10.88;;;;;;;22.58;56.60;99681.47;7291327;19;131171;-39
2023/09/29 09:49:55;;;;;;;164.10;11.32;;;;;;;22.52;55.64;99676.81;7291440;19;130515;-37
2023/09/29 09:52:39;;;;;;;120.65;10.02;;;;;;;22.41;56.69;99666.50;7288379;19;128973;-38
2023/09/29 09:55:12;;;;;;;150.48;11.38;;;;;;;22.54;56.78;99680.13;7290275;19;129173;-38
2023/09/29 09:57:43;;;;;;;147.15;11.73;;;;;;;22.55;55.96;99681.78;7290296;19;129851;-39
2023/09/29 10:00:11;;;;;;;118.15;9.75;;;;;;;22.49;56.57;99658.75;7292877;19;131331;-37
2023/09/29 10:02:43;;;;;;;164.13;12.68;;;;;;;22.57;56.43;99674.59;7290838;19;129724;-36
2023/09/29 10:05:17;;;;;;;164.32;12.88;;;;;;;22.58;56.53;99671.00;7291185;19;130275;-38
2023/09/29 10:07:47;;;;;;;125.88;9.68;;;;;;;22.58;56.21;99668.38;7291355;19;131617;-38
2023/09/29 10:10:32;;;;;;;140.80;10.77;;;;;;;22.58;57.16;99668.38;7291349;19;130023;-36
2023/09/29 10:13:03;;;;;;;143.65;11.10;;;;;;;22.57;56.52;99664.13;7291468;19;130052;-40
2023/09/29 10:15:29;;;;;;;139.10;11.50;;;;;;;22.61;56.73;99665.50;7289722;19;131579;-38
2023/09/29 10:18:01;;;;;;;232.60;16.08;;;;;;;22.56;56.61;99665.09;7289486;19;130289;-36
2023/09/29 10:20:30;;;;;;;192.45;13.57;;;;;;;22.57;56.29;99661.50;7287769;19;129151;-40
2023/09/29 10:23:06;;;;;;;147.57;11.25;;;;;;;22.55;56.49;99652.97;7289448;19;129595;-36
2023/09/29 10:25:36;;;;;;;101.90;8.88;;;;;;;22.60;56.51;99651.56;7290263;19;131447;-38
2023/09/29 10:28:06;;;;;;;107.82;9.63;;;;;;;22.63;56.61;99647.81;7290123;19;131137;-40
2023/09/29 10:30:33;;;;;;;116.90;9.85;;;;;;;22.62;56.01;99644.38;7287583;19;129220;-35
2023/09/29 10:33:07;;;;;;;178.25;13.10;;;;;;;22.61;56.86;99647.16;7290698;19;129991;-40
2023/09/29 10:35:33;;;;;;;158.20;12.68;;;;;;;22.48;56.10;99621.25;7290256;19;129846;-38
2023/09/29 10:38:04;;;;;;;;;;;;;;;22.60;57.16;99643.69;7289320;19;132259;-37
2023/09/29 10:40:32;;;;;;;152.05;12.07;;;;;;;22.65;56.22;99653.75;7289963;19;130509;-41
2023/09/29 10:43:04;;;;;;;158.55;11.73;;;;;;;22.69;56.84;99649.88;7292021;19;132148;-36
2023/09/29 10:45:37;;;;;;;164.40;12.25;;;;;;;22.68;56.42;99649.03;7286964;19;131085;-40
2023/09/29 10:48:08;;;;;;;134.52;10.40;;;;;;;22.67;55.70;99657.06;7290317;19;130394;-37
2023/09/29 10:50:43;;;;;;;168.07;12.18;;;;;;;;;;7287041;19;130747;-35
2023/09/29 10:53:09;;;;;;;136.35;10.40;;;;;;;22.57;56.54;99637.94;7290234;19;129664;-36
2023/09/29 10:55:47;;;;;;;174.38;12.40;;;;;;;22.65;55.87;99662.44;7287776;19;130952;-36
2023/09/29 10:58:13;;;;;;;127.22;9.20;;;;;;;22.70;56.52;99662.00;7288661;19;130163;-38
2023/09/29 11:00:52;;;;;;;141.85;10.77;;;;;;;22.66;56.84;99660.66;7289891;19;131521;-37
2023/09/29 11:03:27;;;;;;;127.25;9.75;;;;;;;22.69;56.53;99660.34;7289150;19;130142;-35